Montgomery, New York
Current Conditions -  °F | °C
As of 6:54 PM on Saturday 22 Nov 2014 (Local Time) from KMGJ Reporting Station
Overcast Overcast  
Wind Chill: 34°   Ceiling: 3500
Heat Index: 41°   Visibility: 10mi
Dew Point: 14°   Wind: 12mph
Humidity: 33%   Direction: 220°SW
Pressure: 30.18"   Gusts: NA
Location:  41.53°N, 74.24°W
Report Text: KMGJ 222354Z AUTO 22010KT 10SM BKN035 OVC041 05/M10 A3018 RMK AO2 SLP224 T00501100 10050 20039 56009 TSNO
Loading
Personal Weather Stations






























Interactive Weather Map New forecast layout! Learn more

10-Day Weather Forecast

Advertisements
Track Severe Weather on mobile